Time;durP1;ratioP1;P1;durP2;ratioP2;P2;SDS_P1;SDS_P2;PMS_P1;PMS_P2;Temp;Humidity;BMP_temperature;BMP_pressure;BME280_temperature;BME280_humidity;BME280_pressure;Samples;Min_cycle;Max_cycle;Signal;HPM_P1;HPM_P2
2023/06/01 04:26:41;;;;;;;21.70;7.32;;;;;;;10.58;74.54;96725.06;2084157;28;20541;-57
2023/06/01 04:27:51;;;;;;;12.27;6.22;;;;;;;10.64;74.64;96726.56;2098043;28;20207;-59
2023/06/01 08:02:13;;;;;;;19.35;3.78;;;;;;;22.58;46.46;96749.69;2082039;28;20565;-53
2023/06/01 08:04:33;;;;;;;10.02;3.63;;;;;;;22.40;46.46;96738.06;2092563;27;20563;-55
2023/06/01 08:06:51;;;;;;;10.73;3.60;;;;;;;22.89;47.27;96751.34;2083922;28;20556;-55
2023/06/01 08:09:05;;;;;;;12.18;3.72;;;;;;;23.09;46.18;96754.81;2083762;28;20562;-55
2023/06/01 08:11:33;;;;;;;7.30;3.65;;;;;;;23.35;44.72;96749.72;2082465;28;20562;-55
2023/06/01 08:12:36;;;;;;;8.13;3.53;;;;;;;23.44;45.76;96761.31;2081175;28;20200;-53
2023/06/01 08:14:58;;;;;;;11.73;3.50;;;;;;;23.43;45.33;96752.47;2084013;28;20549;-53
2023/06/01 08:16:00;;;;;;;6.38;3.53;;;;;;;23.59;45.80;96753.66;2083232;28;20197;-53
2023/06/01 08:18:28;;;;;;;7.10;3.80;;;;;;;23.70;44.98;96737.47;2090468;28;20557;-53
2023/06/01 08:19:31;;;;;;;10.00;4.00;;;;;;;23.67;44.88;96747.59;2089485;28;20784;-53
2023/06/01 08:20:33;;;;;;;10.32;4.43;;;;;;;23.82;45.18;96746.13;2081243;28;20270;-54
2023/06/01 08:23:02;;;;;;;7.95;3.67;;;;;;;23.67;44.49;96747.59;2083472;28;20580;-53
2023/06/01 08:24:04;;;;;;;11.38;4.20;;;;;;;23.67;45.19;96750.25;2081085;28;20283;-53
2023/06/01 08:25:06;;;;;;;8.07;3.83;;;;;;;23.71;44.59;96743.66;2079455;28;20217;-55
2023/06/01 08:27:40;;;;;;;8.50;3.50;;;;;;;23.70;44.49;96728.66;2099600;27;20566;-54
2023/06/01 08:28:43;;;;;;;10.05;3.10;;;;;;;24.13;45.33;96746.63;2098467;28;20203;-53
2023/06/01 08:29:47;;;;;;;7.40;3.50;;;;;;;24.05;45.06;96727.91;2096640;27;20651;-54
2023/06/01 08:30:48;;;;;;;18.27;3.20;;;;;;;24.12;44.76;96734.31;2081121;28;20342;-54
2023/06/01 08:33:34;;;;;;;11.15;3.70;;;;;;;24.31;44.33;96739.66;2103126;27;20569;-54
2023/06/01 08:34:36;;;;;;;9.25;3.67;;;;;;;24.26;44.22;96738.28;2099097;28;20709;-53
2023/06/01 08:35:38;;;;;;;8.02;3.63;;;;;;;24.35;44.51;96736.50;2087447;28;20220;-54
2023/06/01 08:36:44;;;;;;;7.53;3.35;;;;;;;24.41;44.05;96735.06;2088882;28;20652;-54
2023/06/01 08:37:47;;;;;;;7.82;4.00;;;;;;;24.58;44.42;96739.56;2090302;28;20278;-56
2023/06/01 08:38:50;;;;;;;6.53;3.70;;;;;;;24.36;43.16;96742.69;2088311;28;20204;-56
2023/06/01 08:39:52;;;;;;;11.10;3.50;;;;;;;24.34;43.67;96736.66;2088578;28;20234;-56
2023/06/01 08:40:55;;;;;;;8.55;3.60;;;;;;;24.29;44.66;96740.63;2090127;28;20563;-56
2023/06/01 08:42:02;;;;;;;10.93;4.40;;;;;;;24.56;44.47;96740.72;2092932;28;20724;-56
2023/06/01 08:43:27;;;;;;;8.25;3.85;;;;;;;24.55;44.23;96734.50;2092484;28;20344;-56
2023/06/01 08:44:36;;;;;;;8.10;3.30;;;;;;;24.61;44.44;96741.91;2089747;28;20662;-56
2023/06/01 08:45:39;;;;;;;8.70;4.10;;;;;;;24.77;43.24;96740.38;2089746;28;20306;-56
2023/06/01 08:46:41;;;;;;;19.48;4.40;;;;;;;24.84;43.12;96738.78;2088251;28;20818;-56
2023/06/01 08:47:45;;;;;;;7.45;3.30;;;;;;;24.90;43.21;96734.63;2086894;28;20203;-56
2023/06/01 08:48:50;;;;;;;11.07;4.10;;;;;;;25.02;43.03;96724.53;2089687;28;20561;-56
2023/06/01 08:49:53;;;;;;;8.15;3.60;;;;;;;25.16;43.21;96737.31;2087813;28;20200;-56
2023/06/01 08:50:56;;;;;;;10.98;3.78;;;;;;;25.31;42.53;96732.22;2090782;28;20200;-56
2023/06/01 08:52:00;;;;;;;9.27;4.10;;;;;;;25.11;42.70;96736.94;2091065;28;20192;-56
2023/06/01 08:55:38;;;;;;;17.95;4.38;;;;;;;25.20;42.28;96736.00;2099101;27;20919;-56
2023/06/01 08:56:42;;;;;;;10.18;4.80;;;;;;;25.46;41.88;96721.81;2096591;28;20364;-56
2023/06/01 08:57:44;;;;;;;10.02;4.05;;;;;;;25.53;42.48;96730.84;2095014;28;20192;-56
2023/06/01 08:58:46;;;;;;;14.75;4.38;;;;;;;25.38;42.53;96737.78;2096052;28;20257;-56
2023/06/01 08:59:48;;;;;;;9.18;3.65;;;;;;;25.80;42.45;96733.44;2099805;28;20282;-56
2023/06/01 09:00:53;;;;;;;9.38;3.78;;;;;;;25.50;42.12;96730.34;2098994;28;21317;-56
2023/06/01 09:01:57;;;;;;;13.20;4.53;;;;;;;25.42;42.02;96728.47;2098107;28;20225;-57
2023/06/01 09:02:59;;;;;;;5.47;3.33;;;;;;;25.64;42.69;96735.06;2098393;28;20736;-56
2023/06/01 09:04:01;;;;;;;11.27;4.32;;;;;;;25.83;42.24;96730.47;2098564;28;20192;-56
2023/06/01 09:05:03;;;;;;;8.18;4.13;;;;;;;25.91;42.31;96734.00;2098714;28;20187;-56
2023/06/01 09:06:05;;;;;;;9.75;3.83;;;;;;;25.87;41.47;96738.00;2097888;28;20199;-56
2023/06/01 09:07:06;;;;;;;12.88;4.20;;;;;;;25.86;42.32;96732.81;2098991;28;20231;-56
2023/06/01 09:08:09;;;;;;;9.48;3.72;;;;;;;25.81;42.12;96727.09;2099185;28;20230;-57
2023/06/01 09:09:12;;;;;;;9.23;4.10;;;;;;;25.70;42.12;96730.91;2099314;28;20530;-54
2023/06/01 09:10:14;;;;;;;9.07;4.15;;;;;;;25.97;41.39;96732.50;2096548;28;20220;-55
2023/06/01 09:11:16;;;;;;;9.93;3.80;;;;;;;26.09;42.05;96730.38;2095950;28;20551;-55
2023/06/01 09:12:18;;;;;;;11.57;4.50;;;;;;;26.11;41.66;96732.91;2097921;28;20267;-55
2023/06/01 09:13:37;;;;;;;9.75;4.22;;;;;;;26.26;41.74;96731.25;2096415;28;20234;-54
2023/06/01 09:14:39;;;;;;;10.48;4.32;;;;;;;26.60;41.79;96734.78;2098369;28;20608;-54
2023/06/01 09:15:52;;;;;;;5.85;3.58;;;;;;;26.68;40.83;96738.31;2097898;28;20262;-54
2023/06/01 09:16:53;;;;;;;9.90;4.30;;;;;;;26.62;41.94;96740.81;2099263;28;20195;-55
2023/06/01 09:18:13;;;;;;;7.20;3.45;;;;;;;26.76;40.41;96734.81;2097989;28;20195;-54
2023/06/01 09:19:15;;;;;;;10.40;4.00;;;;;;;26.62;40.83;96733.63;2097777;28;20187;-54
2023/06/01 09:20:28;;;;;;;14.40;4.40;;;;;;;26.48;41.30;96737.78;2093953;28;20220;-54
2023/06/01 09:21:29;;;;;;;9.93;3.30;;;;;;;26.75;41.46;96741.16;2096260;28;20256;-54
2023/06/01 09:22:45;;;;;;;9.02;4.28;;;;;;;26.55;41.03;96736.13;2097564;28;20198;-54
2023/06/01 09:23:47;;;;;;;11.32;3.63;;;;;;;26.60;41.04;96740.16;2099152;28;20203;-54
2023/06/01 09:24:59;;;;;;;10.05;4.40;;;;;;;26.79;40.70;96737.16;2094114;28;20200;-55
2023/06/01 09:26:08;;;;;;;12.88;3.60;;;;;;;26.82;40.48;96739.50;2097895;28;20203;-54
2023/06/01 09:27:10;;;;;;;7.57;4.38;;;;;;;27.14;40.21;96739.63;2099211;28;20191;-54
2023/06/01 09:28:11;;;;;;;9.18;3.95;;;;;;;26.85;40.80;96728.44;2098353;28;20320;-54
2023/06/01 09:29:13;;;;;;;12.52;4.25;;;;;;;27.15;41.31;96744.00;2096974;28;20208;-55
2023/06/01 09:30:16;;;;;;;10.60;4.38;;;;;;;27.12;40.04;96739.81;2097194;28;20574;-54
2023/06/01 09:31:37;;;;;;;15.90;4.22;;;;;;;26.83;40.00;96741.19;2097668;28;20191;-54
2023/06/01 09:32:39;;;;;;;10.70;4.25;;;;;;;26.81;40.19;96737.81;2098326;28;20651;-54
2023/06/01 09:34:00;;;;;;;16.50;4.13;;;;;;;26.69;40.79;96733.78;2094690;28;20200;-54
2023/06/01 09:35:02;;;;;;;9.20;4.32;;;;;;;26.99;40.72;96726.09;2096169;28;20214;-56
2023/06/01 09:36:04;;;;;;;6.80;4.15;;;;;;;27.32;40.76;96731.38;2094575;28;20245;-59
2023/06/01 09:37:10;;;;;;;15.60;4.53;;;;;;;27.40;40.09;96730.53;2094963;28;20710;-56
2023/06/01 09:38:19;;;;;;;10.25;3.95;;;;;;;27.53;39.71;96734.34;2098121;28;20282;-56
2023/06/01 09:39:23;;;;;;;11.88;4.07;;;;;;;27.34;39.70;96732.88;2098460;28;20280;-57
2023/06/01 09:40:25;;;;;;;6.93;4.13;;;;;;;27.25;39.76;96731.22;2095780;28;20246;-56
2023/06/01 09:41:26;;;;;;;8.52;3.83;;;;;;;27.32;39.84;96732.19;2095239;28;20245;-56
2023/06/01 09:42:33;;;;;;;7.70;4.03;;;;;;;27.45;40.40;96734.38;2094245;28;20196;-56
2023/06/01 09:43:37;;;;;;;7.90;4.40;;;;;;;27.76;39.65;96722.84;2096994;28;20233;-56
2023/06/01 09:44:41;;;;;;;10.50;3.70;;;;;;;27.65;39.56;96737.47;2098391;28;20206;-57
2023/06/01 09:45:42;;;;;;;12.07;4.25;;;;;;;27.48;40.25;96734.03;2098465;28;20216;-57
2023/06/01 09:46:48;;;;;;;9.13;4.20;;;;;;;27.91;38.64;96730.16;2097924;28;20200;-59
2023/06/01 09:47:51;;;;;;;9.35;4.30;;;;;;;27.89;38.66;96729.50;2098541;28;20198;-57
2023/06/01 09:49:06;;;;;;;8.98;4.15;;;;;;;27.98;39.04;96723.91;2096465;28;20203;-56
2023/06/01 09:50:08;;;;;;;9.05;4.80;;;;;;;27.92;39.24;96724.63;2097580;28;20219;-57
2023/06/01 09:51:28;;;;;;;12.73;4.70;;;;;;;27.77;39.71;96726.34;2097136;28;20195;-56
2023/06/01 09:52:30;;;;;;;7.22;4.10;;;;;;;27.81;38.65;96712.44;2098381;28;20814;-56
2023/06/01 09:53:44;;;;;;;10.20;3.80;;;;;;;27.91;38.82;96720.28;2097302;28;20276;-56
2023/06/01 09:54:50;;;;;;;7.13;4.30;;;;;;;28.06;38.66;96724.91;2114123;28;20309;-56
2023/06/01 09:55:59;;;;;;;10.23;4.20;;;;;;;27.78;38.90;96717.31;2111625;28;20259;-56
2023/06/01 09:57:03;;;;;;;7.90;3.85;;;;;;;28.26;38.57;96714.53;2097399;28;20203;-56
2023/06/01 09:58:19;;;;;;;6.95;4.20;;;;;;;27.75;38.58;96712.31;2094765;28;20634;-57
2023/06/01 09:59:22;;;;;;;10.38;4.95;;;;;;;27.63;38.96;96714.53;2095118;28;20231;-56
2023/06/01 10:00:24;;;;;;;11.15;5.50;;;;;;;27.00;39.60;96717.88;2096923;28;20224;-56
2023/06/01 10:01:32;;;;;;;14.68;4.50;;;;;;;27.62;38.54;96721.75;2097452;28;20192;-57
2023/06/01 10:02:34;;;;;;;7.55;4.53;;;;;;;26.36;40.04;96715.03;2097278;28;20620;-56
2023/06/01 10:03:41;;;;;;;12.40;4.60;;;;;;;26.24;40.50;96714.53;2098137;28;20669;-55
2023/06/01 10:04:58;;;;;;;11.90;5.20;;;;;;;27.33;38.72;96707.06;2097474;28;20222;-56
2023/06/01 10:06:01;;;;;;;7.95;3.80;;;;;;;27.72;38.54;96713.50;2097835;28;20206;-55
2023/06/01 10:07:05;;;;;;;6.28;3.67;;;;;;;27.93;38.59;96710.19;2091222;28;20242;-56
2023/06/01 10:08:06;;;;;;;7.75;4.45;;;;;;;27.63;39.02;96715.38;2092177;28;20203;-56
2023/06/01 10:09:14;;;;;;;8.63;4.55;;;;;;;27.96;38.26;96714.34;2091848;28;20196;-58
2023/06/01 10:10:16;;;;;;;10.68;5.28;;;;;;;28.04;38.36;96706.31;2091161;28;20340;-58
2023/06/01 10:11:18;;;;;;;16.40;4.90;;;;;;;28.26;37.30;96715.38;2092918;28;20196;-58
2023/06/01 10:12:19;;;;;;;10.82;4.20;;;;;;;28.21;37.64;96703.50;2090692;28;20231;-57
2023/06/01 10:13:24;;;;;;;14.95;4.65;;;;;;;28.53;37.47;96707.78;2093026;28;20291;-57
2023/06/01 10:14:26;;;;;;;7.85;4.22;;;;;;;28.63;37.37;96699.47;2092900;28;20192;-57
2023/06/01 10:15:27;;;;;;;8.00;4.22;;;;;;;28.52;37.47;96708.81;2092449;28;20303;-57
2023/06/01 10:16:32;;;;;;;15.20;4.50;;;;;;;28.43;38.07;96696.47;2091612;28;20262;-57
2023/06/01 10:17:34;;;;;;;6.10;4.15;;;;;;;28.57;37.95;96706.44;2091700;28;20451;-57
2023/06/01 10:18:39;;;;;;;8.30;4.40;;;;;;;28.12;37.58;96708.09;2092753;28;20245;-56
2023/06/01 10:19:41;;;;;;;10.32;4.70;;;;;;;28.14;37.24;96711.44;2088678;28;20330;-56
2023/06/01 10:20:43;;;;;;;8.20;4.55;;;;;;;28.75;37.01;96708.00;2088548;28;20278;-57
2023/06/01 10:21:45;;;;;;;7.18;4.28;;;;;;;28.58;36.49;96708.09;2088699;28;20265;-57
2023/06/01 10:22:48;;;;;;;12.00;4.30;;;;;;;28.77;36.43;96709.47;2089966;28;20208;-57
2023/06/01 10:23:50;;;;;;;9.43;4.00;;;;;;;28.58;36.21;96709.94;2092757;28;20955;-57
2023/06/01 10:24:58;;;;;;;9.38;4.68;;;;;;;27.65;36.59;96707.97;2091564;28;20471;-57
2023/06/01 10:26:09;;;;;;;11.10;4.03;;;;;;;27.83;36.41;96710.41;2093117;28;20188;-57
2023/06/01 10:27:23;;;;;;;16.50;4.03;;;;;;;28.24;37.23;96701.31;2092993;28;20200;-57
2023/06/01 10:28:27;;;;;;;21.73;4.60;;;;;;;28.83;36.82;96707.91;2092634;28;20702;-57
2023/06/01 10:29:30;;;;;;;12.75;5.03;;;;;;;28.70;36.56;96705.00;2091907;28;20312;-57
2023/06/01 10:30:32;;;;;;;9.43;4.63;;;;;;;28.82;36.02;96700.84;2092456;28;20587;-57
2023/06/01 10:31:37;;;;;;;16.98;4.30;;;;;;;28.75;35.92;96702.63;2088549;28;20437;-57
2023/06/01 10:32:44;;;;;;;6.50;3.93;;;;;;;28.81;36.12;96699.19;2091979;28;20199;-57
2023/06/01 10:33:53;;;;;;;8.53;3.90;;;;;;;28.91;35.86;96702.47;2091816;28;20425;-57
2023/06/01 10:34:54;;;;;;;10.50;3.73;;;;;;;29.23;35.80;96694.22;2091145;28;20771;-57
2023/06/01 10:35:56;;;;;;;7.60;3.83;;;;;;;29.29;35.24;96696.19;2091065;28;20911;-57
2023/06/01 10:36:57;;;;;;;14.20;4.13;;;;;;;29.14;35.80;96701.53;2093100;28;20904;-57
2023/06/01 10:38:09;;;;;;;12.13;4.63;;;;;;;29.50;35.61;96695.44;2093975;28;20551;-57
2023/06/01 10:39:30;;;;;;;8.73;4.30;;;;;;;29.12;35.12;96695.53;2094545;28;20431;-57
2023/06/01 10:40:39;;;;;;;8.60;4.37;;;;;;;28.81;36.26;96669.63;2091793;28;20485;-57
2023/06/01 10:41:41;;;;;;;8.90;4.83;;;;;;;29.07;35.79;96695.25;2090932;28;20989;-57
2023/06/01 10:42:44;;;;;;;7.83;4.20;;;;;;;29.56;35.42;96699.22;2092153;28;20440;-57
2023/06/01 10:43:45;;;;;;;10.77;3.80;;;;;;;29.51;34.53;96689.06;2093760;28;20539;-57
2023/06/01 10:44:48;;;;;;;6.80;3.80;;;;;;;29.09;33.67;96687.81;2088282;28;20461;-56
2023/06/01 10:45:50;;;;;;;7.00;4.30;;;;;;;29.58;34.47;96689.13;2091012;28;21170;-57
2023/06/01 10:46:52;;;;;;;6.60;3.67;;;;;;;29.38;34.37;96694.25;2092087;28;20435;-56
2023/06/01 10:47:53;;;;;;;9.00;4.20;;;;;;;29.51;34.31;96683.69;2092453;28;20428;-56
2023/06/01 10:48:57;;;;;;;5.90;3.50;;;;;;;29.65;33.42;96680.13;2094110;28;20961;-56
2023/06/01 10:49:58;;;;;;;17.00;4.27;;;;;;;29.60;33.71;96690.63;2089200;28;20474;-56
2023/06/01 10:51:20;;;;;;;10.33;4.10;;;;;;;29.42;33.90;96682.94;2090765;28;21147;-57
2023/06/01 10:52:29;;;;;;;9.13;4.10;;;;;;;28.73;33.60;96683.97;2090238;28;20428;-57
2023/06/01 10:53:31;;;;;;;8.33;4.10;;;;;;;28.98;34.13;96686.44;2091747;28;20429;-56
2023/06/01 10:54:32;;;;;;;8.30;4.30;;;;;;;29.46;35.37;96678.84;2092271;28;20444;-56
2023/06/01 10:55:34;;;;;;;7.70;3.40;;;;;;;29.52;33.27;96681.81;2090657;28;20472;-56
2023/06/01 10:56:36;;;;;;;8.70;3.33;;;;;;;27.73;34.22;96676.78;2091319;28;20486;-56
2023/06/01 10:57:38;;;;;;;12.27;3.43;;;;;;;28.14;36.15;96692.66;2091068;28;20552;-56
2023/06/01 10:58:40;;;;;;;6.67;3.50;;;;;;;28.87;34.99;96686.88;2092194;28;20463;-56
2023/06/01 10:59:42;;;;;;;7.43;4.03;;;;;;;28.73;33.97;96673.22;2091588;28;20904;-57
2023/06/01 11:00:44;;;;;;;9.52;3.72;;;;;;;28.68;33.32;96689.06;2088415;28;20610;-56
2023/06/01 11:01:48;;;;;;;8.10;4.00;;;;;;;27.43;34.75;96685.47;2091592;28;20228;-56
2023/06/01 11:02:59;;;;;;;15.82;4.60;;;;;;;27.84;33.84;96684.41;2090173;28;20203;-56
2023/06/01 11:04:01;;;;;;;16.43;4.33;;;;;;;27.99;34.04;96679.13;2109515;28;20202;-56
2023/06/01 11:05:35;;;;;;;8.90;4.45;;;;;;;28.61;34.57;96680.03;2107762;28;23322;-57
2023/06/01 11:06:39;;;;;;;10.80;3.95;;;;;;;28.73;35.35;96670.53;2091827;28;20197;-56
2023/06/01 11:07:41;;;;;;;9.85;4.63;;;;;;;29.38;34.37;96678.13;2091659;28;20193;-57
2023/06/01 11:08:42;;;;;;;4.63;3.43;;;;;;;29.79;34.19;96672.22;2088388;28;20308;-57
2023/06/01 11:09:47;;;;;;;10.85;4.43;;;;;;;29.83;33.85;96678.88;2088793;28;20452;-57
2023/06/01 11:10:55;;;;;;;7.32;3.90;;;;;;;29.90;33.56;96673.59;2093032;28;20699;-57
2023/06/01 11:11:58;;;;;;;9.30;4.30;;;;;;;29.76;33.98;96669.91;2088218;28;20215;-57
2023/06/01 11:13:17;;;;;;;12.30;4.50;;;;;;;30.10;33.64;96671.94;2091986;28;20424;-57
2023/06/01 11:14:23;;;;;;;7.70;4.10;;;;;;;29.95;33.82;96676.56;2107830;28;21177;-57
2023/06/01 11:15:26;;;;;;;8.65;3.45;;;;;;;29.36;36.02;96672.94;2102223;28;20467;-57
2023/06/01 11:16:28;;;;;;;10.17;4.10;;;;;;;29.79;35.37;96675.72;2089567;28;20208;-58
2023/06/01 11:17:30;;;;;;;7.57;4.60;;;;;;;30.15;34.38;96640.94;2088291;28;21089;-57
2023/06/01 11:18:44;;;;;;;6.60;4.30;;;;;;;29.83;32.67;96672.66;2088966;28;20931;-58
2023/06/01 11:19:46;;;;;;;14.20;4.43;;;;;;;29.87;33.44;96674.78;2091504;28;20447;-57
2023/06/01 11:20:49;;;;;;;10.37;3.70;;;;;;;30.15;34.64;96678.63;2108154;28;20945;-58
2023/06/01 11:22:05;;;;;;;8.00;4.00;;;;;;;30.29;33.20;96675.84;2107296;28;20509;-58
2023/06/01 11:23:11;;;;;;;7.70;4.20;;;;;;;30.68;34.33;96675.59;2091635;28;20482;-58
2023/06/01 11:24:14;;;;;;;17.27;4.10;;;;;;;30.55;33.57;96687.09;2092023;28;20966;-58
2023/06/01 11:25:17;;;;;;;7.33;3.87;;;;;;;30.89;32.99;96682.81;2090595;28;20528;-58
2023/06/01 11:26:21;;;;;;;6.60;3.57;;;;;;;31.01;33.13;96683.09;2092805;28;20521;-57
2023/06/01 11:27:23;;;;;;;13.77;4.07;;;;;;;31.01;32.54;96683.94;2092068;28;20453;-57
2023/06/01 11:28:24;;;;;;;5.67;3.87;;;;;;;31.15;32.18;96684.88;2091575;28;20421;-58
2023/06/01 11:29:26;;;;;;;11.57;3.20;;;;;;;30.80;31.01;96679.41;2104027;28;20427;-58
2023/06/01 11:30:28;;;;;;;9.50;4.10;;;;;;;29.27;30.92;96668.66;2104216;28;20539;-57
2023/06/01 11:31:36;;;;;;;6.87;3.73;;;;;;;27.62;33.83;96668.13;2091538;28;20432;-57
2023/06/01 11:32:40;;;;;;;6.33;3.80;;;;;;;28.29;33.61;96665.84;2092066;28;20463;-57
2023/06/01 11:33:57;;;;;;;11.67;5.30;;;;;;;28.59;33.62;96674.00;2091469;28;20416;-57
2023/06/01 11:34:59;;;;;;;8.63;3.77;;;;;;;27.96;34.43;96647.28;2090728;28;20939;-57
2023/06/01 11:36:04;;;;;;;5.67;3.50;;;;;;;28.73;33.69;96664.34;2091954;28;20448;-57
2023/06/01 11:37:12;;;;;;;10.30;4.78;;;;;;;27.87;34.30;96667.97;2092998;28;20416;-58
2023/06/01 11:38:14;;;;;;;5.45;3.70;;;;;;;28.14;33.52;96660.47;2084443;28;20718;-57
2023/06/01 11:39:20;;;;;;;10.77;4.05;;;;;;;27.78;35.35;96664.53;2090906;28;20245;-57
2023/06/01 11:40:21;;;;;;;11.88;4.20;;;;;;;29.05;34.22;96663.19;2090782;28;20767;-57
2023/06/01 11:41:23;;;;;;;8.45;4.40;;;;;;;29.19;33.55;96657.97;2090273;28;20272;-57
2023/06/01 11:42:34;;;;;;;16.10;4.30;;;;;;;28.60;34.01;96659.56;2090355;28;20200;-57
2023/06/01 11:43:36;;;;;;;11.35;4.40;;;;;;;29.58;32.98;96657.69;2091946;28;20658;-57
2023/06/01 11:44:40;;;;;;;8.30;4.53;;;;;;;29.94;33.17;96646.13;2092479;28;20203;-57
2023/06/01 11:45:41;;;;;;;11.70;3.85;;;;;;;30.39;32.54;96659.38;2091220;28;20219;-57
2023/06/01 11:46:53;;;;;;;6.47;4.40;;;;;;;30.43;33.30;96657.97;2091374;28;20256;-57
2023/06/01 11:47:55;;;;;;;10.83;3.23;;;;;;;30.80;32.99;96657.88;2103156;28;20443;-58
2023/06/01 11:49:04;;;;;;;6.97;3.63;;;;;;;31.05;31.82;96660.13;2102960;28;20427;-58
2023/06/01 11:50:19;;;;;;;7.80;4.00;;;;;;;30.80;31.26;96657.88;2090406;28;20456;-58
2023/06/01 11:51:21;;;;;;;8.50;4.23;;;;;;;28.22;33.92;96651.50;2090799;28;20554;-58
2023/06/01 11:52:22;;;;;;;7.27;4.40;;;;;;;29.13;34.22;96649.63;2091390;28;20436;-57
2023/06/01 11:53:24;;;;;;;8.07;4.03;;;;;;;29.78;33.09;96655.22;2090727;28;20992;-57
2023/06/01 11:54:28;;;;;;;6.60;3.80;;;;;;;30.40;32.69;96663.75;2092660;28;20426;-58
2023/06/01 11:55:29;;;;;;;7.87;4.50;;;;;;;30.61;32.01;96654.00;2087355;28;20988;-58
2023/06/01 11:56:34;;;;;;;9.63;3.57;;;;;;;31.17;31.43;96657.72;2088332;28;20444;-58
2023/06/01 11:57:40;;;;;;;7.00;4.07;;;;;;;30.20;31.13;96657.34;2091474;28;20512;-58
2023/06/01 11:58:42;;;;;;;8.63;3.83;;;;;;;28.93;32.98;96643.97;2090739;28;20429;-58
2023/06/01 11:59:48;;;;;;;7.87;4.43;;;;;;;29.20;32.43;96647.03;2091587;28;20946;-58
2023/06/01 12:00:50;;;;;;;8.30;3.80;;;;;;;28.09;33.35;96654.78;2087873;28;20793;-57
2023/06/01 12:01:53;;;;;;;9.00;3.80;;;;;;;28.80;31.80;96652.69;2088908;28;20516;-58
2023/06/01 12:03:07;;;;;;;10.73;3.80;;;;;;;28.07;32.24;96646.91;2091562;28;20436;-57
2023/06/01 12:04:17;;;;;;;8.97;4.60;;;;;;;28.58;32.68;96638.28;2089262;28;20475;-57
2023/06/01 12:05:19;;;;;;;9.10;4.23;;;;;;;28.88;32.10;96648.25;2090774;28;20525;-58
2023/06/01 12:06:22;;;;;;;6.15;3.40;;;;;;;28.46;32.25;96643.22;2091142;28;20432;-57
2023/06/01 12:07:24;;;;;;;9.07;4.47;;;;;;;27.68;32.65;96643.28;2087978;28;20667;-57
2023/06/01 12:08:28;;;;;;;9.90;4.30;;;;;;;27.45;33.19;96637.88;2088677;28;20222;-57
2023/06/01 12:09:30;;;;;;;13.48;5.03;;;;;;;28.31;32.76;96643.19;2090630;28;20267;-57
2023/06/01 12:10:32;;;;;;;7.88;4.60;;;;;;;29.53;32.17;96640.47;2088691;28;20579;-58
2023/06/01 12:11:34;;;;;;;12.57;3.90;;;;;;;29.45;31.79;96636.84;2090467;28;20245;-57
2023/06/01 12:12:36;;;;;;;8.73;4.00;;;;;;;29.23;32.25;96635.06;2090468;28;20334;-57
2023/06/01 12:13:38;;;;;;;11.35;4.25;;;;;;;29.18;32.38;96630.28;2089713;28;20663;-57
2023/06/01 12:14:41;;;;;;;6.97;3.63;;;;;;;30.08;32.37;96628.25;2092369;28;20200;-58
2023/06/01 12:15:44;;;;;;;5.77;3.43;;;;;;;30.95;31.75;96636.19;2091275;28;20361;-58
2023/06/01 12:16:53;;;;;;;4.47;3.07;;;;;;;30.93;30.72;96630.16;2087613;28;20448;-58
2023/06/01 12:17:56;;;;;;;8.07;3.70;;;;;;;31.31;31.33;96637.88;2088834;28;20512;-58
2023/06/01 12:19:09;;;;;;;7.47;3.80;;;;;;;30.63;31.20;96630.41;2089967;28;20490;-58
2023/06/01 12:20:11;;;;;;;9.20;3.70;;;;;;;31.09;30.10;96629.06;2088874;28;20985;-58
2023/06/01 12:21:13;;;;;;;6.60;3.73;;;;;;;31.08;29.87;96632.78;2087984;28;20437;-58
2023/06/01 12:22:16;;;;;;;6.20;3.77;;;;;;;30.38;29.88;96628.09;2088746;28;20425;-58
2023/06/01 12:23:20;;;;;;;7.77;3.60;;;;;;;31.20;29.31;96627.69;2089774;28;20482;-58
2023/06/01 12:24:33;;;;;;;7.17;3.77;;;;;;;30.99;29.61;96624.00;2092065;28;20448;-58
2023/06/01 12:25:35;;;;;;;9.87;4.07;;;;;;;28.72;31.17;96619.69;2089115;28;21174;-58
2023/06/01 12:26:36;;;;;;;9.37;3.50;;;;;;;29.50;31.92;96622.84;2091473;28;20424;-57
2023/06/01 12:27:39;;;;;;;10.00;3.43;;;;;;;30.12;31.85;96621.44;2091718;28;20460;-58
2023/06/01 12:28:48;;;;;;;5.80;3.70;;;;;;;30.86;30.54;96623.91;2091659;28;20436;-58
2023/06/01 12:29:51;;;;;;;6.27;3.50;;;;;;;31.39;30.14;96624.22;2090653;28;20919;-58
2023/06/01 12:31:10;;;;;;;6.77;3.23;;;;;;;29.91;32.71;96621.44;2091086;28;20952;-58
2023/06/01 12:32:15;;;;;;;9.03;3.60;;;;;;;30.96;31.69;96629.78;2108857;28;20446;-57
2023/06/01 12:33:36;;;;;;;9.43;3.73;;;;;;;31.58;30.09;96624.50;2107197;28;20426;-58
2023/06/01 12:34:39;;;;;;;12.20;4.70;;;;;;;31.01;29.25;96618.38;2093340;28;20429;-58
2023/06/01 12:35:48;;;;;;;5.50;3.83;;;;;;;31.12;31.17;96623.25;2087206;28;20457;-58
2023/06/01 12:36:50;;;;;;;6.73;3.90;;;;;;;31.41;30.66;96627.56;2090807;28;20430;-57
2023/06/01 12:38:09;;;;;;;6.80;4.43;;;;;;;31.56;30.64;96624.69;2089381;28;20461;-58
2023/06/01 12:39:11;;;;;;;6.07;3.40;;;;;;;31.56;30.29;96623.88;2091593;28;20430;-58
2023/06/01 12:40:21;;;;;;;7.40;3.40;;;;;;;32.01;29.42;96620.69;2090767;28;20532;-58
2023/06/01 12:41:23;;;;;;;9.90;3.67;;;;;;;31.39;29.73;96594.56;2090839;28;20425;-58
2023/06/01 12:42:38;;;;;;;8.90;3.50;;;;;;;31.40;29.90;96620.50;2092479;28;20585;-58
2023/06/01 12:43:44;;;;;;;9.90;3.60;;;;;;;31.67;29.77;96617.94;2087801;28;20425;-58
2023/06/01 12:44:52;;;;;;;13.43;4.47;;;;;;;30.37;31.00;96606.75;2087779;28;20440;-58
2023/06/01 12:45:54;;;;;;;60.73;42.67;;;;;;;30.82;30.22;96612.69;2090900;28;20430;-58
2023/06/01 12:46:57;;;;;;;12.40;5.00;;;;;;;30.27;29.94;96604.38;2091473;28;20424;-57
2023/06/01 12:47:59;;;;;;;9.17;4.07;;;;;;;30.58;30.63;96597.84;2089294;28;20490;-57
2023/06/01 12:49:14;;;;;;;6.23;3.50;;;;;;;30.81;30.65;96611.03;2107580;28;20455;-58
2023/06/01 12:50:15;;;;;;;5.80;3.80;;;;;;;30.61;30.47;96605.50;2103051;28;20606;-57
2023/06/01 12:51:18;;;;;;;6.90;3.27;;;;;;;31.39;30.40;96604.53;2092196;28;20515;-58
2023/06/01 12:52:20;;;;;;;9.10;3.60;;;;;;;31.92;29.98;96602.00;2090838;28;20504;-57
2023/06/01 12:53:21;;;;;;;9.30;3.80;;;;;;;31.86;29.31;96605.50;2091360;28;20479;-57
2023/06/01 12:54:23;;;;;;;7.13;3.87;;;;;;;32.08;29.48;96597.25;2090703;28;20422;-57
2023/06/01 12:55:24;;;;;;;15.60;3.37;;;;;;;32.22;29.38;96603.50;2089088;28;20492;-55
2023/06/01 12:56:26;;;;;;;4.80;3.30;;;;;;;31.13;28.84;96602.53;2091048;28;20429;-56
2023/06/01 12:57:27;;;;;;;4.70;3.33;;;;;;;29.90;30.51;96598.25;2092664;28;20488;-55
2023/06/01 12:58:29;;;;;;;7.90;3.70;;;;;;;29.75;30.59;96601.81;2092786;28;20424;-55
2023/06/01 12:59:30;;;;;;;16.57;9.40;;;;;;;30.49;30.58;96601.69;2091297;28;20420;-55
2023/06/01 13:00:32;;;;;;;36.63;28.03;;;;;;;31.02;29.62;96580.47;2091520;28;20514;-57
2023/06/01 13:01:54;;;;;;;66.70;45.10;;;;;;;31.78;29.56;96602.16;2090870;28;20432;-56
2023/06/01 13:02:55;;;;;;;32.13;21.70;;;;;;;30.98;30.86;96592.66;2089460;28;20421;-57
2023/06/01 13:03:57;;;;;;;15.40;8.73;;;;;;;31.46;30.89;96601.84;2089426;28;20420;-57
2023/06/01 13:04:59;;;;;;;7.50;4.20;;;;;;;31.84;30.14;96604.88;2089577;28;20422;-57
2023/06/01 13:06:03;;;;;;;7.03;3.90;;;;;;;32.26;30.45;96591.25;2092044;28;20437;-56
2023/06/01 13:07:05;;;;;;;8.80;3.73;;;;;;;31.52;30.37;96599.16;2107997;28;20518;-56
2023/06/01 13:08:08;;;;;;;9.60;3.70;;;;;;;32.19;30.04;96601.25;2106495;28;20431;-58
2023/06/01 13:09:09;;;;;;;6.80;3.40;;;;;;;31.78;30.13;96594.91;2091651;28;20767;-57
2023/06/01 13:10:11;;;;;;;6.37;3.30;;;;;;;32.27;30.04;96598.31;2087078;28;20465;-57
2023/06/01 13:11:13;;;;;;;5.27;3.20;;;;;;;32.11;28.69;96601.41;2091960;28;20429;-57
2023/06/01 13:12:15;;;;;;;9.57;3.73;;;;;;;32.50;28.63;96597.06;2092218;28;20420;-57
2023/06/01 13:13:16;;;;;;;6.10;3.23;;;;;;;32.84;28.21;96597.88;2087707;28;20436;-57
2023/06/01 13:14:18;;;;;;;6.80;2.97;;;;;;;32.88;27.81;96594.53;2087951;28;20457;-57
2023/06/01 13:15:20;;;;;;;7.00;2.90;;;;;;;32.86;28.17;96593.94;2087015;28;20453;-57
2023/06/01 13:16:25;;;;;;;19.33;3.83;;;;;;;33.02;27.84;96586.41;2088747;28;20437;-59
2023/06/01 13:17:26;;;;;;;4.63;3.33;;;;;;;33.22;28.06;96597.16;2097105;28;20483;-60
2023/06/01 13:18:28;;;;;;;12.70;3.37;;;;;;;33.16;27.96;96588.00;2099060;28;20485;-60